sensor_id;sensor_type;location;lat;lon;timestamp;P1;durP1;ratioP1;P2;durP2;ratioP2
74320;SDS011;62738;45.772;4.804;2023-03-25T00:00:11;10.02;;;5.35;;
74320;SDS011;62738;45.772;4.804;2023-03-25T00:02:45;9.07;;;5.15;;
74320;SDS011;62738;45.772;4.804;2023-03-25T00:05:15;14.55;;;5.82;;
74320;SDS011;62738;45.772;4.804;2023-03-25T00:07:45;13.50;;;6.65;;
74320;SDS011;62738;45.772;4.804;2023-03-25T00:10:15;12.95;;;6.18;;
74320;SDS011;62738;45.772;4.804;2023-03-25T00:12:42;9.30;;;5.30;;
74320;SDS011;62738;45.772;4.804;2023-03-25T00:15:09;12.30;;;5.78;;
74320;SDS011;62738;45.772;4.804;2023-03-25T00:17:37;9.68;;;5.60;;
74320;SDS011;62738;45.772;4.804;2023-03-25T00:20:05;10.30;;;5.43;;
74320;SDS011;62738;45.772;4.804;2023-03-25T00:22:37;10.13;;;5.50;;
74320;SDS011;62738;45.772;4.804;2023-03-25T00:25:10;10.18;;;5.13;;
74320;SDS011;62738;45.772;4.804;2023-03-25T00:27:43;10.65;;;5.70;;
74320;SDS011;62738;45.772;4.804;2023-03-25T00:30:13;12.15;;;5.85;;
74320;SDS011;62738;45.772;4.804;2023-03-25T00:32:40;10.73;;;5.05;;
74320;SDS011;62738;45.772;4.804;2023-03-25T00:35:11;8.43;;;5.43;;
74320;SDS011;62738;45.772;4.804;2023-03-25T00:37:39;11.07;;;4.50;;
74320;SDS011;62738;45.772;4.804;2023-03-25T00:40:06;13.32;;;5.20;;
74320;SDS011;62738;45.772;4.804;2023-03-25T00:42:34;8.48;;;4.57;;
74320;SDS011;62738;45.772;4.804;2023-03-25T00:45:00;9.23;;;4.07;;
74320;SDS011;62738;45.772;4.804;2023-03-25T00:47:27;10.02;;;5.10;;
74320;SDS011;62738;45.772;4.804;2023-03-25T00:49:53;9.43;;;5.25;;
74320;SDS011;62738;45.772;4.804;2023-03-25T00:52:20;12.38;;;6.13;;
74320;SDS011;62738;45.772;4.804;2023-03-25T00:54:48;15.90;;;6.20;;
74320;SDS011;62738;45.772;4.804;2023-03-25T00:57:15;12.02;;;6.55;;
74320;SDS011;62738;45.772;4.804;2023-03-25T00:59:42;10.70;;;5.82;;
74320;SDS011;62738;45.772;4.804;2023-03-25T01:02:09;11.90;;;5.75;;
74320;SDS011;62738;45.772;4.804;2023-03-25T01:04:36;10.63;;;5.15;;
74320;SDS011;62738;45.772;4.804;2023-03-25T01:07:07;9.60;;;4.72;;
74320;SDS011;62738;45.772;4.804;2023-03-25T01:09:34;11.93;;;5.40;;
74320;SDS011;62738;45.772;4.804;2023-03-25T01:12:01;13.32;;;6.32;;
74320;SDS011;62738;45.772;4.804;2023-03-25T01:14:28;8.38;;;5.13;;
74320;SDS011;62738;45.772;4.804;2023-03-25T01:16:54;14.60;;;5.13;;
74320;SDS011;62738;45.772;4.804;2023-03-25T01:19:23;10.25;;;5.07;;
74320;SDS011;62738;45.772;4.804;2023-03-25T01:21:52;11.93;;;6.05;;
74320;SDS011;62738;45.772;4.804;2023-03-25T01:24:19;15.88;;;5.93;;
74320;SDS011;62738;45.772;4.804;2023-03-25T01:26:46;16.20;;;7.90;;
74320;SDS011;62738;45.772;4.804;2023-03-25T01:29:13;14.27;;;7.05;;
74320;SDS011;62738;45.772;4.804;2023-03-25T01:31:42;11.77;;;6.22;;
74320;SDS011;62738;45.772;4.804;2023-03-25T01:34:09;7.75;;;4.53;;
74320;SDS011;62738;45.772;4.804;2023-03-25T01:36:36;10.20;;;4.85;;
74320;SDS011;62738;45.772;4.804;2023-03-25T01:39:06;9.75;;;5.05;;
74320;SDS011;62738;45.772;4.804;2023-03-25T01:41:34;11.00;;;4.78;;
74320;SDS011;62738;45.772;4.804;2023-03-25T01:46:44;10.50;;;5.50;;
74320;SDS011;62738;45.772;4.804;2023-03-25T01:49:18;14.88;;;6.72;;
74320;SDS011;62738;45.772;4.804;2023-03-25T01:52:20;9.93;;;4.60;;
74320;SDS011;62738;45.772;4.804;2023-03-25T01:54:51;9.48;;;3.22;;
74320;SDS011;62738;45.772;4.804;2023-03-25T01:57:20;8.23;;;4.10;;
74320;SDS011;62738;45.772;4.804;2023-03-25T01:59:48;7.07;;;3.40;;
74320;SDS011;62738;45.772;4.804;2023-03-25T02:02:18;7.90;;;4.03;;
74320;SDS011;62738;45.772;4.804;2023-03-25T02:07:26;6.97;;;3.55;;
74320;SDS011;62738;45.772;4.804;2023-03-25T02:09:58;8.50;;;4.13;;
74320;SDS011;62738;45.772;4.804;2023-03-25T02:12:27;9.85;;;3.92;;
74320;SDS011;62738;45.772;4.804;2023-03-25T02:14:56;9.63;;;3.95;;
74320;SDS011;62738;45.772;4.804;2023-03-25T02:17:33;6.57;;;2.70;;
74320;SDS011;62738;45.772;4.804;2023-03-25T02:28:41;7.22;;;3.70;;
74320;SDS011;62738;45.772;4.804;2023-03-25T02:47:41;6.28;;;3.13;;
74320;SDS011;62738;45.772;4.804;2023-03-25T02:50:26;9.65;;;3.63;;
74320;SDS011;62738;45.772;4.804;2023-03-25T02:52:58;7.43;;;3.90;;
74320;SDS011;62738;45.772;4.804;2023-03-25T02:55:27;7.38;;;3.13;;
74320;SDS011;62738;45.772;4.804;2023-03-25T02:57:58;6.80;;;3.25;;
74320;SDS011;62738;45.772;4.804;2023-03-25T03:02:57;6.07;;;3.17;;
74320;SDS011;62738;45.772;4.804;2023-03-25T03:05:33;6.40;;;3.28;;
74320;SDS011;62738;45.772;4.804;2023-03-25T03:13:21;7.20;;;3.60;;
74320;SDS011;62738;45.772;4.804;2023-03-25T03:24:23;6.68;;;3.30;;
74320;SDS011;62738;45.772;4.804;2023-03-25T03:32:10;7.75;;;3.03;;
74320;SDS011;62738;45.772;4.804;2023-03-25T03:34:42;7.82;;;2.75;;
74320;SDS011;62738;45.772;4.804;2023-03-25T03:37:13;8.43;;;2.67;;
74320;SDS011;62738;45.772;4.804;2023-03-25T03:39:42;6.68;;;2.60;;
74320;SDS011;62738;45.772;4.804;2023-03-25T03:42:17;5.32;;;2.53;;
74320;SDS011;62738;45.772;4.804;2023-03-25T03:44:51;7.05;;;2.78;;
74320;SDS011;62738;45.772;4.804;2023-03-25T03:47:23;8.20;;;2.75;;
74320;SDS011;62738;45.772;4.804;2023-03-25T03:50:15;7.90;;;2.15;;
74320;SDS011;62738;45.772;4.804;2023-03-25T03:52:47;6.15;;;2.30;;
74320;SDS011;62738;45.772;4.804;2023-03-25T03:55:38;6.25;;;2.35;;
74320;SDS011;62738;45.772;4.804;2023-03-25T03:58:13;6.35;;;2.67;;
74320;SDS011;62738;45.772;4.804;2023-03-25T04:00:58;4.60;;;2.22;;
74320;SDS011;62738;45.772;4.804;2023-03-25T04:03:33;5.15;;;2.30;;
74320;SDS011;62738;45.772;4.804;2023-03-25T04:06:18;5.85;;;2.47;;
74320;SDS011;62738;45.772;4.804;2023-03-25T04:08:59;8.65;;;2.40;;
74320;SDS011;62738;45.772;4.804;2023-03-25T04:11:34;6.88;;;3.08;;
74320;SDS011;62738;45.772;4.804;2023-03-25T04:14:07;4.10;;;2.10;;
74320;SDS011;62738;45.772;4.804;2023-03-25T04:16:35;6.50;;;2.30;;
74320;SDS011;62738;45.772;4.804;2023-03-25T04:19:05;5.47;;;2.42;;
74320;SDS011;62738;45.772;4.804;2023-03-25T04:21:32;5.70;;;2.20;;
74320;SDS011;62738;45.772;4.804;2023-03-25T04:23:59;8.60;;;2.40;;
74320;SDS011;62738;45.772;4.804;2023-03-25T04:26:27;6.20;;;2.28;;
74320;SDS011;62738;45.772;4.804;2023-03-25T04:29:00;5.78;;;2.30;;
74320;SDS011;62738;45.772;4.804;2023-03-25T04:31:27;6.00;;;2.40;;
74320;SDS011;62738;45.772;4.804;2023-03-25T04:33:58;6.05;;;2.10;;
74320;SDS011;62738;45.772;4.804;2023-03-25T04:36:27;8.35;;;2.05;;
74320;SDS011;62738;45.772;4.804;2023-03-25T04:38:54;3.75;;;1.50;;
74320;SDS011;62738;45.772;4.804;2023-03-25T04:41:21;5.78;;;1.80;;
74320;SDS011;62738;45.772;4.804;2023-03-25T04:43:48;5.68;;;2.08;;
74320;SDS011;62738;45.772;4.804;2023-03-25T04:46:15;5.88;;;2.25;;
74320;SDS011;62738;45.772;4.804;2023-03-25T04:48:43;4.35;;;1.85;;
74320;SDS011;62738;45.772;4.804;2023-03-25T04:51:11;5.18;;;1.70;;
74320;SDS011;62738;45.772;4.804;2023-03-25T04:53:39;5.20;;;1.80;;
74320;SDS011;62738;45.772;4.804;2023-03-25T04:56:07;4.45;;;2.03;;
74320;SDS011;62738;45.772;4.804;2023-03-25T04:58:44;5.15;;;1.98;;
74320;SDS011;62738;45.772;4.804;2023-03-25T05:01:18;6.15;;;1.80;;
74320;SDS011;62738;45.772;4.804;2023-03-25T05:03:48;4.30;;;1.90;;
74320;SDS011;62738;45.772;4.804;2023-03-25T05:06:16;5.00;;;2.00;;
74320;SDS011;62738;45.772;4.804;2023-03-25T05:08:43;4.63;;;1.90;;
74320;SDS011;62738;45.772;4.804;2023-03-25T05:11:10;6.65;;;2.25;;
74320;SDS011;62738;45.772;4.804;2023-03-25T05:13:36;6.32;;;2.00;;
74320;SDS011;62738;45.772;4.804;2023-03-25T05:16:03;5.18;;;2.05;;
74320;SDS011;62738;45.772;4.804;2023-03-25T05:18:30;6.63;;;1.92;;
74320;SDS011;62738;45.772;4.804;2023-03-25T05:20:57;6.50;;;2.08;;
74320;SDS011;62738;45.772;4.804;2023-03-25T05:23:26;5.65;;;1.80;;
74320;SDS011;62738;45.772;4.804;2023-03-25T05:25:52;4.60;;;2.00;;
74320;SDS011;62738;45.772;4.804;2023-03-25T05:28:19;4.90;;;1.80;;
74320;SDS011;62738;45.772;4.804;2023-03-25T05:30:46;6.82;;;1.90;;
74320;SDS011;62738;45.772;4.804;2023-03-25T05:33:14;5.35;;;2.42;;
74320;SDS011;62738;45.772;4.804;2023-03-25T05:35:42;4.80;;;2.00;;
74320;SDS011;62738;45.772;4.804;2023-03-25T05:38:10;7.53;;;2.53;;
74320;SDS011;62738;45.772;4.804;2023-03-25T05:40:44;7.30;;;2.53;;
74320;SDS011;62738;45.772;4.804;2023-03-25T05:43:12;6.22;;;2.25;;
74320;SDS011;62738;45.772;4.804;2023-03-25T05:45:40;5.28;;;2.00;;
74320;SDS011;62738;45.772;4.804;2023-03-25T05:48:08;6.60;;;2.10;;
74320;SDS011;62738;45.772;4.804;2023-03-25T05:50:35;7.57;;;2.20;;
74320;SDS011;62738;45.772;4.804;2023-03-25T05:53:03;6.72;;;2.55;;
74320;SDS011;62738;45.772;4.804;2023-03-25T05:55:30;5.63;;;2.10;;
74320;SDS011;62738;45.772;4.804;2023-03-25T05:57:56;7.30;;;2.70;;
74320;SDS011;62738;45.772;4.804;2023-03-25T06:00:24;8.30;;;2.72;;
74320;SDS011;62738;45.772;4.804;2023-03-25T06:02:50;9.05;;;2.10;;
74320;SDS011;62738;45.772;4.804;2023-03-25T06:05:17;7.40;;;2.33;;
74320;SDS011;62738;45.772;4.804;2023-03-25T06:10:15;10.25;;;2.40;;
74320;SDS011;62738;45.772;4.804;2023-03-25T06:12:43;6.25;;;2.25;;
74320;SDS011;62738;45.772;4.804;2023-03-25T06:15:13;5.78;;;2.03;;
74320;SDS011;62738;45.772;4.804;2023-03-25T06:17:46;4.70;;;2.30;;
74320;SDS011;62738;45.772;4.804;2023-03-25T06:20:14;5.80;;;1.92;;
74320;SDS011;62738;45.772;4.804;2023-03-25T06:22:42;5.72;;;1.63;;
74320;SDS011;62738;45.772;4.804;2023-03-25T06:25:11;5.75;;;1.65;;
74320;SDS011;62738;45.772;4.804;2023-03-25T06:27:42;4.55;;;1.85;;
74320;SDS011;62738;45.772;4.804;2023-03-25T06:30:10;5.15;;;1.70;;
74320;SDS011;62738;45.772;4.804;2023-03-25T06:32:42;7.15;;;1.77;;
74320;SDS011;62738;45.772;4.804;2023-03-25T06:35:09;5.55;;;1.90;;
74320;SDS011;62738;45.772;4.804;2023-03-25T06:37:37;7.15;;;2.10;;
74320;SDS011;62738;45.772;4.804;2023-03-25T06:40:05;5.57;;;2.20;;
74320;SDS011;62738;45.772;4.804;2023-03-25T06:42:32;4.07;;;1.80;;
74320;SDS011;62738;45.772;4.804;2023-03-25T06:44:58;6.60;;;1.95;;
74320;SDS011;62738;45.772;4.804;2023-03-25T06:47:25;7.38;;;2.38;;
74320;SDS011;62738;45.772;4.804;2023-03-25T06:49:52;4.47;;;1.80;;
74320;SDS011;62738;45.772;4.804;2023-03-25T06:52:19;5.05;;;1.80;;
74320;SDS011;62738;45.772;4.804;2023-03-25T06:54:46;3.92;;;1.83;;
74320;SDS011;62738;45.772;4.804;2023-03-25T06:57:13;5.10;;;1.92;;
74320;SDS011;62738;45.772;4.804;2023-03-25T06:59:39;5.10;;;1.08;;
74320;SDS011;62738;45.772;4.804;2023-03-25T07:02:06;7.15;;;0.88;;
74320;SDS011;62738;45.772;4.804;2023-03-25T07:04:33;6.40;;;1.25;;
74320;SDS011;62738;45.772;4.804;2023-03-25T07:07:00;4.60;;;0.95;;
74320;SDS011;62738;45.772;4.804;2023-03-25T07:09:26;4.80;;;0.80;;
74320;SDS011;62738;45.772;4.804;2023-03-25T07:11:54;5.07;;;0.98;;
74320;SDS011;62738;45.772;4.804;2023-03-25T07:14:20;3.75;;;1.27;;
74320;SDS011;62738;45.772;4.804;2023-03-25T07:16:47;7.10;;;1.10;;
74320;SDS011;62738;45.772;4.804;2023-03-25T07:19:14;3.42;;;0.90;;
74320;SDS011;62738;45.772;4.804;2023-03-25T07:21:41;7.60;;;1.20;;
74320;SDS011;62738;45.772;4.804;2023-03-25T07:24:07;5.57;;;1.05;;
74320;SDS011;62738;45.772;4.804;2023-03-25T07:26:34;5.68;;;1.20;;
74320;SDS011;62738;45.772;4.804;2023-03-25T07:29:01;4.97;;;1.40;;
74320;SDS011;62738;45.772;4.804;2023-03-25T07:31:28;4.95;;;0.90;;
74320;SDS011;62738;45.772;4.804;2023-03-25T07:33:56;4.30;;;0.80;;
74320;SDS011;62738;45.772;4.804;2023-03-25T07:36:24;3.15;;;0.98;;
74320;SDS011;62738;45.772;4.804;2023-03-25T07:38:52;3.35;;;1.13;;
74320;SDS011;62738;45.772;4.804;2023-03-25T07:41:21;4.88;;;0.90;;
74320;SDS011;62738;45.772;4.804;2023-03-25T07:43:48;6.53;;;1.15;;
74320;SDS011;62738;45.772;4.804;2023-03-25T07:46:14;6.32;;;0.95;;
74320;SDS011;62738;45.772;4.804;2023-03-25T07:48:41;7.95;;;1.00;;
74320;SDS011;62738;45.772;4.804;2023-03-25T07:51:08;6.40;;;1.30;;
74320;SDS011;62738;45.772;4.804;2023-03-25T07:53:35;4.95;;;0.82;;
74320;SDS011;62738;45.772;4.804;2023-03-25T07:56:04;4.57;;;1.00;;
74320;SDS011;62738;45.772;4.804;2023-03-25T07:58:31;6.38;;;1.40;;
74320;SDS011;62738;45.772;4.804;2023-03-25T08:00:58;5.65;;;1.05;;
74320;SDS011;62738;45.772;4.804;2023-03-25T08:03:25;3.60;;;1.00;;
74320;SDS011;62738;45.772;4.804;2023-03-25T08:05:53;4.85;;;1.27;;
74320;SDS011;62738;45.772;4.804;2023-03-25T08:08:20;5.25;;;0.93;;
74320;SDS011;62738;45.772;4.804;2023-03-25T08:10:46;6.55;;;1.23;;
74320;SDS011;62738;45.772;4.804;2023-03-25T08:13:13;7.03;;;1.10;;
74320;SDS011;62738;45.772;4.804;2023-03-25T08:15:41;5.68;;;1.20;;
74320;SDS011;62738;45.772;4.804;2023-03-25T08:18:08;8.05;;;1.40;;
74320;SDS011;62738;45.772;4.804;2023-03-25T08:20:34;5.63;;;1.27;;
74320;SDS011;62738;45.772;4.804;2023-03-25T08:23:01;6.25;;;1.15;;
74320;SDS011;62738;45.772;4.804;2023-03-25T08:25:29;6.25;;;1.00;;
74320;SDS011;62738;45.772;4.804;2023-03-25T08:27:56;5.57;;;1.20;;
74320;SDS011;62738;45.772;4.804;2023-03-25T08:30:23;6.88;;;1.23;;
74320;SDS011;62738;45.772;4.804;2023-03-25T08:32:49;7.13;;;1.10;;
74320;SDS011;62738;45.772;4.804;2023-03-25T08:35:23;4.68;;;1.10;;
74320;SDS011;62738;45.772;4.804;2023-03-25T08:37:49;4.13;;;0.85;;
74320;SDS011;62738;45.772;4.804;2023-03-25T08:40:16;5.00;;;1.23;;
74320;SDS011;62738;45.772;4.804;2023-03-25T08:42:46;4.00;;;0.95;;
74320;SDS011;62738;45.772;4.804;2023-03-25T08:45:12;6.13;;;1.30;;
74320;SDS011;62738;45.772;4.804;2023-03-25T08:47:41;2.80;;;0.90;;
74320;SDS011;62738;45.772;4.804;2023-03-25T08:50:09;7.05;;;0.88;;
74320;SDS011;62738;45.772;4.804;2023-03-25T08:52:35;6.32;;;1.50;;
74320;SDS011;62738;45.772;4.804;2023-03-25T08:55:03;5.55;;;1.20;;
74320;SDS011;62738;45.772;4.804;2023-03-25T08:57:36;3.25;;;1.02;;
74320;SDS011;62738;45.772;4.804;2023-03-25T09:00:03;3.67;;;1.40;;
74320;SDS011;62738;45.772;4.804;2023-03-25T09:02:40;5.95;;;1.30;;
74320;SDS011;62738;45.772;4.804;2023-03-25T09:05:08;5.97;;;1.40;;
74320;SDS011;62738;45.772;4.804;2023-03-25T09:07:36;4.25;;;0.85;;
74320;SDS011;62738;45.772;4.804;2023-03-25T09:10:04;5.95;;;1.58;;
74320;SDS011;62738;45.772;4.804;2023-03-25T09:12:32;4.85;;;1.38;;
74320;SDS011;62738;45.772;4.804;2023-03-25T09:14:59;4.78;;;1.52;;
74320;SDS011;62738;45.772;4.804;2023-03-25T09:17:25;5.65;;;1.60;;
74320;SDS011;62738;45.772;4.804;2023-03-25T09:19:52;5.28;;;1.05;;
74320;SDS011;62738;45.772;4.804;2023-03-25T09:22:21;5.28;;;1.80;;
74320;SDS011;62738;45.772;4.804;2023-03-25T09:24:47;7.50;;;1.40;;
74320;SDS011;62738;45.772;4.804;2023-03-25T09:27:14;3.67;;;1.27;;
74320;SDS011;62738;45.772;4.804;2023-03-25T09:29:41;4.68;;;0.98;;
74320;SDS011;62738;45.772;4.804;2023-03-25T09:32:07;4.45;;;1.00;;
74320;SDS011;62738;45.772;4.804;2023-03-25T09:34:34;5.47;;;1.27;;
74320;SDS011;62738;45.772;4.804;2023-03-25T09:37:01;6.85;;;1.40;;
74320;SDS011;62738;45.772;4.804;2023-03-25T09:39:28;6.78;;;1.45;;
74320;SDS011;62738;45.772;4.804;2023-03-25T09:47:36;4.50;;;1.10;;
74320;SDS011;62738;45.772;4.804;2023-03-25T09:50:05;6.40;;;1.20;;
74320;SDS011;62738;45.772;4.804;2023-03-25T09:55:27;4.72;;;1.00;;
74320;SDS011;62738;45.772;4.804;2023-03-25T09:57:59;5.10;;;1.15;;
74320;SDS011;62738;45.772;4.804;2023-03-25T10:00:30;7.72;;;1.10;;
74320;SDS011;62738;45.772;4.804;2023-03-25T10:08:28;5.43;;;1.30;;
74320;SDS011;62738;45.772;4.804;2023-03-25T10:16:36;7.15;;;1.20;;
74320;SDS011;62738;45.772;4.804;2023-03-25T10:19:19;4.55;;;0.98;;
74320;SDS011;62738;45.772;4.804;2023-03-25T10:22:04;4.82;;;1.00;;
74320;SDS011;62738;45.772;4.804;2023-03-25T10:24:39;5.78;;;1.15;;
74320;SDS011;62738;45.772;4.804;2023-03-25T10:29:52;5.70;;;1.33;;
74320;SDS011;62738;45.772;4.804;2023-03-25T10:32:36;4.57;;;1.10;;
74320;SDS011;62738;45.772;4.804;2023-03-25T10:35:08;4.65;;;1.10;;
74320;SDS011;62738;45.772;4.804;2023-03-25T10:37:39;4.90;;;1.20;;
74320;SDS011;62738;45.772;4.804;2023-03-25T10:42:57;7.35;;;1.38;;
74320;SDS011;62738;45.772;4.804;2023-03-25T10:45:26;4.72;;;1.05;;
74320;SDS011;62738;45.772;4.804;2023-03-25T10:47:54;2.05;;;0.68;;
74320;SDS011;62738;45.772;4.804;2023-03-25T10:50:30;2.05;;;0.65;;
74320;SDS011;62738;45.772;4.804;2023-03-25T10:52:56;3.92;;;0.77;;
74320;SDS011;62738;45.772;4.804;2023-03-25T10:55:24;3.17;;;0.68;;
74320;SDS011;62738;45.772;4.804;2023-03-25T10:57:54;4.60;;;1.10;;
74320;SDS011;62738;45.772;4.804;2023-03-25T11:00:21;4.43;;;1.10;;
74320;SDS011;62738;45.772;4.804;2023-03-25T11:02:49;3.58;;;1.10;;
74320;SDS011;62738;45.772;4.804;2023-03-25T11:05:18;4.78;;;1.20;;
74320;SDS011;62738;45.772;4.804;2023-03-25T11:07:48;6.55;;;1.33;;
74320;SDS011;62738;45.772;4.804;2023-03-25T11:12:52;4.28;;;0.98;;
74320;SDS011;62738;45.772;4.804;2023-03-25T11:15:21;5.13;;;1.00;;
74320;SDS011;62738;45.772;4.804;2023-03-25T11:17:55;4.50;;;1.25;;
74320;SDS011;62738;45.772;4.804;2023-03-25T11:20:28;3.13;;;1.20;;
74320;SDS011;62738;45.772;4.804;2023-03-25T11:23:02;3.10;;;0.90;;
74320;SDS011;62738;45.772;4.804;2023-03-25T11:25:36;3.58;;;1.10;;
74320;SDS011;62738;45.772;4.804;2023-03-25T11:28:31;4.13;;;1.20;;
74320;SDS011;62738;45.772;4.804;2023-03-25T11:33:38;2.88;;;1.00;;
74320;SDS011;62738;45.772;4.804;2023-03-25T11:36:26;5.60;;;1.40;;
74320;SDS011;62738;45.772;4.804;2023-03-25T11:39:01;4.75;;;1.30;;
74320;SDS011;62738;45.772;4.804;2023-03-25T11:41:36;4.63;;;1.50;;
74320;SDS011;62738;45.772;4.804;2023-03-25T11:44:03;5.57;;;1.38;;
74320;SDS011;62738;45.772;4.804;2023-03-25T11:46:31;3.17;;;1.42;;
74320;SDS011;62738;45.772;4.804;2023-03-25T11:49:09;3.85;;;1.00;;
74320;SDS011;62738;45.772;4.804;2023-03-25T11:51:37;2.58;;;1.02;;
74320;SDS011;62738;45.772;4.804;2023-03-25T11:54:07;4.13;;;1.08;;
74320;SDS011;62738;45.772;4.804;2023-03-25T11:56:39;2.80;;;0.70;;
74320;SDS011;62738;45.772;4.804;2023-03-25T11:59:09;5.00;;;1.25;;
74320;SDS011;62738;45.772;4.804;2023-03-25T12:01:47;4.95;;;1.23;;
74320;SDS011;62738;45.772;4.804;2023-03-25T12:04:22;5.50;;;1.30;;
74320;SDS011;62738;45.772;4.804;2023-03-25T12:07:06;4.55;;;0.98;;
74320;SDS011;62738;45.772;4.804;2023-03-25T12:09:34;2.45;;;1.30;;
74320;SDS011;62738;45.772;4.804;2023-03-25T12:18:11;2.33;;;0.73;;
74320;SDS011;62738;45.772;4.804;2023-03-25T12:21:11;3.97;;;0.80;;
74320;SDS011;62738;45.772;4.804;2023-03-25T12:26:31;4.45;;;1.00;;
74320;SDS011;62738;45.772;4.804;2023-03-25T12:31:58;3.92;;;1.10;;
74320;SDS011;62738;45.772;4.804;2023-03-25T12:37:18;4.22;;;0.95;;
74320;SDS011;62738;45.772;4.804;2023-03-25T12:42:45;4.75;;;1.35;;
74320;SDS011;62738;45.772;4.804;2023-03-25T12:48:14;2.90;;;0.80;;
74320;SDS011;62738;45.772;4.804;2023-03-25T12:53:46;3.97;;;1.15;;
74320;SDS011;62738;45.772;4.804;2023-03-25T13:06:58;3.80;;;1.20;;
74320;SDS011;62738;45.772;4.804;2023-03-25T13:12:02;3.22;;;0.88;;
74320;SDS011;62738;45.772;4.804;2023-03-25T13:14:44;4.97;;;1.08;;
74320;SDS011;62738;45.772;4.804;2023-03-25T13:17:28;5.07;;;1.30;;
74320;SDS011;62738;45.772;4.804;2023-03-25T13:19:59;2.85;;;0.95;;
74320;SDS011;62738;45.772;4.804;2023-03-25T13:22:32;4.18;;;1.10;;
74320;SDS011;62738;45.772;4.804;2023-03-25T13:25:04;5.53;;;1.02;;
74320;SDS011;62738;45.772;4.804;2023-03-25T13:27:35;5.57;;;1.42;;
74320;SDS011;62738;45.772;4.804;2023-03-25T13:30:06;7.30;;;1.85;;
74320;SDS011;62738;45.772;4.804;2023-03-25T13:32:41;4.78;;;1.52;;
74320;SDS011;62738;45.772;4.804;2023-03-25T13:38:14;3.83;;;0.93;;
74320;SDS011;62738;45.772;4.804;2023-03-25T13:40:47;3.88;;;1.02;;
74320;SDS011;62738;45.772;4.804;2023-03-25T13:43:36;3.42;;;1.02;;
74320;SDS011;62738;45.772;4.804;2023-03-25T13:51:12;5.10;;;1.27;;
74320;SDS011;62738;45.772;4.804;2023-03-25T13:53:45;7.25;;;1.98;;
74320;SDS011;62738;45.772;4.804;2023-03-25T13:58:56;5.57;;;1.20;;
74320;SDS011;62738;45.772;4.804;2023-03-25T14:01:51;4.05;;;1.20;;
74320;SDS011;62738;45.772;4.804;2023-03-25T14:54:15;5.50;;;1.38;;
